createdAt,value
2023-05-07T00:00:29.518Z,100806.56
2023-05-07T00:03:02.754Z,100813.47
2023-05-07T00:05:42.658Z,100816.31
2023-05-07T00:08:21.758Z,100817.91
2023-05-07T00:10:55.006Z,100809.03
2023-05-07T00:13:36.274Z,100809.41
2023-05-07T00:16:09.436Z,100802.50
2023-05-07T00:18:47.352Z,100800.88
2023-05-07T00:21:26.426Z,100797.66
2023-05-07T00:24:02.122Z,100798.47
2023-05-07T00:26:38.151Z,100798.47
2023-05-07T00:29:11.013Z,100800.06
2023-05-07T00:31:46.675Z,100808.16
2023-05-07T00:34:24.585Z,100810.63
2023-05-07T00:37:02.536Z,100812.25
2023-05-07T00:39:36.832Z,100811.03
2023-05-07T00:42:16.084Z,100802.50
2023-05-07T00:44:51.963Z,100804.94
2023-05-07T00:47:26.478Z,100798.84
2023-05-07T00:50:02.521Z,100801.69
2023-05-07T00:52:38.603Z,100799.28
2023-05-07T00:55:15.639Z,100799.28
2023-05-07T00:57:49.177Z,100803.31
2023-05-07T01:00:32.022Z,100796.44
2023-05-07T01:03:10.651Z,100795.22
2023-05-07T01:05:49.453Z,100796.81
2023-05-07T01:08:29.675Z,100803.72
2023-05-07T01:11:12.372Z,100798.03
2023-05-07T01:13:51.014Z,100797.66
2023-05-07T01:16:29.718Z,100795.63
2023-05-07T01:19:08.622Z,100792.78
2023-05-07T01:21:46.919Z,100794.00
2023-05-07T01:24:23.039Z,100798.50
2023-05-07T01:26:56.314Z,100787.16
2023-05-07T01:29:34.545Z,100790.78
2023-05-07T01:32:07.684Z,100784.72
2023-05-07T01:34:47.793Z,100791.66
2023-05-07T01:37:24.587Z,100783.13
2023-05-07T01:39:57.946Z,100781.91
2023-05-07T01:42:31.275Z,100790.00
2023-05-07T01:45:12.503Z,100786.34
2023-05-07T01:47:47.975Z,100788.81
2023-05-07T01:50:24.166Z,100793.28
2023-05-07T01:53:02.486Z,100789.25
2023-05-07T01:55:37.753Z,100790.03
2023-05-07T01:58:11.749Z,100788.81
2023-05-07T02:00:49.457Z,100793.28
2023-05-07T02:03:26.845Z,100788.84
2023-05-07T02:06:10.794Z,100792.88
2023-05-07T02:08:48.782Z,100798.19
2023-05-07T02:11:23.721Z,100792.88
2023-05-07T02:13:54.311Z,100788.44
2023-05-07T02:16:32.301Z,100793.72
2023-05-07T02:19:05.502Z,100796.16
2023-05-07T02:21:43.138Z,100801.03
2023-05-07T02:24:11.827Z,100799.00
2023-05-07T02:26:47.844Z,100794.13
2023-05-07T02:29:22.041Z,100792.09
2023-05-07T02:31:59.861Z,100790.09
2023-05-07T02:34:34.809Z,100786.47
2023-05-07T02:37:06.689Z,100793.75
2023-05-07T02:39:43.547Z,100782.38
2023-05-07T02:42:19.371Z,100788.06
2023-05-07T02:44:56.170Z,100794.53
2023-05-07T02:47:32.201Z,100792.53
2023-05-07T02:50:07.644Z,100794.16
2023-05-07T02:52:38.073Z,100799.41
2023-05-07T02:55:16.069Z,100797.00
2023-05-07T02:57:52.858Z,100807.13
2023-05-07T03:00:25.882Z,100801.06
2023-05-07T03:03:30.576Z,100800.66
2023-05-07T03:06:06.386Z,100803.09
2023-05-07T03:08:39.720Z,100802.69
2023-05-07T03:11:15.933Z,100797.03
2023-05-07T03:13:54.721Z,100799.84
2023-05-07T03:16:39.175Z,100801.47
2023-05-07T03:19:14.829Z,100796.63
2023-05-07T03:21:47.688Z,100797.06
2023-05-07T03:24:21.130Z,100795.44
2023-05-07T03:26:56.918Z,100799.50
2023-05-07T03:29:27.229Z,100795.81
2023-05-07T03:32:00.103Z,100797.03
2023-05-07T03:34:35.904Z,100793.81
2023-05-07T03:37:08.706Z,100790.19
2023-05-07T03:39:39.335Z,100795.84
2023-05-07T03:42:15.772Z,100790.56
2023-05-07T03:44:48.636Z,100794.63
2023-05-07T03:47:27.176Z,100795.44
2023-05-07T03:50:08.338Z,100798.28
2023-05-07T03:52:44.565Z,100796.25
2023-05-07T03:55:19.074Z,100792.22
2023-05-07T03:58:00.176Z,100789.00
2023-05-07T04:00:40.090Z,100786.16
2023-05-07T04:03:32.622Z,100791.00
2023-05-07T04:06:09.497Z,100792.63
2023-05-07T04:08:46.325Z,100793.44
2023-05-07T04:11:28.331Z,100795.47
2023-05-07T04:13:56.335Z,100801.16
2023-05-07T04:16:32.878Z,100796.72
2023-05-07T04:19:11.523Z,100800.38
2023-05-07T04:21:52.832Z,100804.81
2023-05-07T04:24:28.655Z,100807.22
2023-05-07T04:27:04.495Z,100803.56
2023-05-07T04:29:48.170Z,100811.69
2023-05-07T04:32:21.828Z,100799.53
2023-05-07T04:35:00.551Z,100805.63
2023-05-07T04:37:36.862Z,100810.06
2023-05-07T04:40:16.983Z,100814.13
2023-05-07T04:42:57.912Z,100813.72
2023-05-07T04:45:36.388Z,100815.31
2023-05-07T04:48:11.003Z,100818.19
2023-05-07T04:50:51.343Z,100815.75
2023-05-07T04:53:26.029Z,100820.56
2023-05-07T04:55:58.508Z,100822.25
2023-05-07T04:58:40.921Z,100830.34
2023-05-07T05:01:17.427Z,100829.53
2023-05-07T05:03:56.848Z,100836.00
2023-05-07T05:06:34.497Z,100837.22
2023-05-07T05:09:11.005Z,100840.84
2023-05-07T05:11:53.137Z,100846.53
2023-05-07T05:14:28.895Z,100846.94
2023-05-07T05:17:10.110Z,100857.03
2023-05-07T05:19:48.910Z,100855.41
2023-05-07T05:22:30.715Z,100863.13
2023-05-07T05:25:06.945Z,100867.13
2023-05-07T05:27:47.580Z,100867.59
2023-05-07T05:30:26.563Z,100870.00
2023-05-07T05:33:03.124Z,100872.06
2023-05-07T05:35:41.794Z,100870.03
2023-05-07T05:38:26.913Z,100865.16
2023-05-07T05:41:03.005Z,100857.00
2023-05-07T05:43:38.851Z,100851.34
2023-05-07T05:46:16.266Z,100848.94
2023-05-07T05:48:46.661Z,100853.38
2023-05-07T05:51:22.785Z,100856.22
2023-05-07T05:53:58.545Z,100862.28
2023-05-07T05:56:40.336Z,100865.13
2023-05-07T05:59:17.402Z,100864.69
2023-05-07T06:01:48.442Z,100863.47
2023-05-07T06:04:27.244Z,100865.09
2023-05-07T06:07:07.391Z,100860.63
2023-05-07T06:09:40.841Z,100865.88
2023-05-07T06:12:10.756Z,100859.78
2023-05-07T06:14:46.784Z,100864.25
2023-05-07T06:17:25.314Z,100859.38
2023-05-07T06:20:05.179Z,100863.44
2023-05-07T06:22:38.192Z,100864.22
2023-05-07T06:25:08.930Z,100872.72
2023-05-07T06:27:41.716Z,100867.06
2023-05-07T06:30:22.927Z,100865.41
2023-05-07T06:33:03.865Z,100873.91
2023-05-07T06:35:39.824Z,100876.75
2023-05-07T06:38:18.992Z,100869.44
2023-05-07T06:40:58.143Z,100878.34
2023-05-07T06:43:34.567Z,100870.69
2023-05-07T06:46:32.671Z,100871.03
2023-05-07T06:49:07.180Z,100879.13
2023-05-07T06:51:45.216Z,100879.91
2023-05-07T06:54:24.393Z,100878.31
2023-05-07T06:57:03.864Z,100881.16
2023-05-07T06:59:41.248Z,100875.84
2023-05-07T07:02:18.289Z,100875.47
2023-05-07T07:05:04.116Z,100876.66
2023-05-07T07:07:39.939Z,100872.16
2023-05-07T07:10:19.566Z,100879.47
2023-05-07T07:12:58.169Z,100873.34
2023-05-07T07:15:34.719Z,100876.16
2023-05-07T07:18:10.914Z,100870.53
2023-05-07T07:20:50.971Z,100868.06
2023-05-07T07:23:27.388Z,100868.88
2023-05-07T07:26:04.368Z,100876.97
2023-05-07T07:28:37.231Z,100868.78
2023-05-07T07:31:09.929Z,100862.75
2023-05-07T07:33:43.290Z,100863.53
2023-05-07T07:36:17.195Z,100865.16
2023-05-07T07:38:52.573Z,100857.00
2023-05-07T07:41:25.572Z,100862.22
2023-05-07T07:44:04.675Z,100858.22
2023-05-07T07:46:42.325Z,100855.72
2023-05-07T07:49:14.940Z,100865.47
2023-05-07T07:51:46.496Z,100870.75
2023-05-07T07:54:22.199Z,100868.34
2023-05-07T07:56:52.676Z,100868.75
2023-05-07T07:59:25.586Z,100872.78
2023-05-07T08:02:03.266Z,100873.22
2023-05-07T08:04:40.170Z,100876.88
2023-05-07T08:07:11.843Z,100875.56
2023-05-07T08:09:50.526Z,100888.16
2023-05-07T08:12:27.063Z,100885.72
2023-05-07T08:15:00.844Z,100880.03
2023-05-07T08:17:34.409Z,100879.25
2023-05-07T08:20:07.623Z,100891.78
2023-05-07T08:22:43.978Z,100883.28
2023-05-07T08:25:19.381Z,100901.13
2023-05-07T08:27:51.809Z,100890.59
2023-05-07T08:30:25.314Z,100897.06
2023-05-07T08:33:03.543Z,100896.59
2023-05-07T08:35:36.385Z,100894.63
2023-05-07T08:38:13.180Z,100899.06
2023-05-07T08:40:46.610Z,100898.22
2023-05-07T08:43:30.439Z,100893.31
2023-05-07T08:46:10.038Z,100892.94
2023-05-07T08:48:45.614Z,100895.38
2023-05-07T08:51:26.641Z,100893.75
2023-05-07T08:53:59.542Z,100891.22
2023-05-07T08:56:40.827Z,100890.84
2023-05-07T08:59:17.229Z,100887.22
2023-05-07T09:01:51.376Z,100896.16
2023-05-07T09:04:25.061Z,100892.03
2023-05-07T09:07:04.728Z,100890.91
2023-05-07T09:09:43.726Z,100884.78
2023-05-07T09:12:18.695Z,100885.53
2023-05-07T09:14:54.557Z,100881.06
2023-05-07T09:17:32.417Z,100882.28
2023-05-07T09:20:11.491Z,100892.44
2023-05-07T09:22:52.137Z,100884.69
2023-05-07T09:25:31.199Z,100883.94
2023-05-07T09:28:16.733Z,100883.06
2023-05-07T09:30:48.389Z,100886.34
2023-05-07T09:33:24.578Z,100882.28
2023-05-07T09:36:09.725Z,100876.97
2023-05-07T09:38:40.189Z,100884.75
2023-05-07T09:41:13.923Z,100875.78
2023-05-07T09:43:57.381Z,100877.38
2023-05-07T09:46:40.467Z,100876.53
2023-05-07T09:49:32.540Z,100876.94
2023-05-07T09:52:11.598Z,100876.13
2023-05-07T09:54:54.034Z,100881.78
2023-05-07T09:57:33.269Z,100878.13
2023-05-07T10:00:11.907Z,100871.25
2023-05-07T10:02:59.494Z,100872.44
2023-05-07T10:05:48.415Z,100875.28
2023-05-07T10:08:21.035Z,100870.41
2023-05-07T10:10:56.697Z,100870.81
2023-05-07T10:13:35.897Z,100864.75
2023-05-07T10:16:15.788Z,100862.31
2023-05-07T10:18:56.869Z,100858.63
2023-05-07T10:21:41.060Z,100863.44
2023-05-07T10:24:29.392Z,100843.97
2023-05-07T10:27:12.128Z,100848.88
2023-05-07T10:30:01.494Z,100854.50
2023-05-07T10:32:43.706Z,100848.72
2023-05-07T10:35:27.936Z,100842.25
2023-05-07T10:38:01.547Z,100852.47
2023-05-07T10:40:40.938Z,100847.94
2023-05-07T10:43:14.469Z,100851.97
2023-05-07T10:46:17.823Z,100852.41
2023-05-07T10:49:14.462Z,100848.34
2023-05-07T10:52:19.910Z,100844.66
2023-05-07T10:55:20.957Z,100843.00
2023-05-07T11:01:50.924Z,100844.59
2023-05-07T11:04:27.407Z,100835.69
2023-05-07T11:07:14.432Z,100833.19
2023-05-07T11:09:55.854Z,100829.13
2023-05-07T11:12:45.042Z,100829.63
2023-05-07T11:15:43.444Z,100825.03
2023-05-07T11:18:52.978Z,100818.88
2023-05-07T11:21:45.752Z,100819.75
2023-05-07T11:24:45.417Z,100821.34
2023-05-07T11:27:26.381Z,100805.06
2023-05-07T11:29:59.300Z,100814.91
2023-05-07T11:32:33.634Z,100814.56
2023-05-07T11:35:02.170Z,100806.81
2023-05-07T11:37:31.829Z,100808.81
2023-05-07T11:40:15.143Z,100803.88
2023-05-07T11:42:53.918Z,100805.59
2023-05-07T11:45:27.637Z,100805.59
2023-05-07T11:48:00.503Z,100810.81
2023-05-07T11:50:52.202Z,100813.22
2023-05-07T11:53:31.571Z,100813.22
2023-05-07T11:56:12.678Z,100805.94
2023-05-07T11:58:43.804Z,100797.84
2023-05-07T12:01:17.569Z,100809.22
2023-05-07T12:03:48.481Z,100787.25
2023-05-07T12:06:21.933Z,100795.78
2023-05-07T12:09:03.477Z,100805.13
2023-05-07T12:11:36.345Z,100803.88
2023-05-07T12:14:12.425Z,100804.31
2023-05-07T12:16:52.482Z,100804.72
2023-05-07T12:19:32.513Z,100811.22
2023-05-07T12:22:08.342Z,100807.53
2023-05-07T12:24:52.525Z,100802.31
2023-05-07T12:27:27.336Z,100806.31
2023-05-07T12:30:02.031Z,100800.22
2023-05-07T12:32:37.509Z,100802.31
2023-05-07T12:35:16.644Z,100801.44
2023-05-07T12:38:00.794Z,100796.53
2023-05-07T12:40:41.953Z,100791.25
2023-05-07T12:43:27.552Z,100796.03
2023-05-07T12:46:07.798Z,100798.50
2023-05-07T12:48:47.934Z,100797.28
2023-05-07T12:51:21.674Z,100788.34
2023-05-07T12:53:51.902Z,100782.72
2023-05-07T12:56:25.882Z,100784.72
2023-05-07T12:59:03.611Z,100790.00
2023-05-07T13:01:38.618Z,100782.63
2023-05-07T13:04:17.026Z,100780.13
2023-05-07T13:06:49.673Z,100781.78
2023-05-07T13:09:22.020Z,100778.09
2023-05-07T13:12:02.442Z,100775.66
2023-05-07T13:14:36.625Z,100761.09
2023-05-07T13:17:08.649Z,100768.78
2023-05-07T13:19:42.919Z,100755.00
2023-05-07T13:22:22.168Z,100755.88
2023-05-07T13:24:57.832Z,100751.50
2023-05-07T13:27:35.674Z,100750.63
2023-05-07T13:30:08.999Z,100753.47
2023-05-07T13:32:40.670Z,100746.94
2023-05-07T13:35:16.530Z,100756.25
2023-05-07T13:37:53.032Z,100743.19
2023-05-07T13:40:26.264Z,100744.53
2023-05-07T13:43:04.338Z,100750.22
2023-05-07T13:45:39.936Z,100744.09
2023-05-07T13:48:13.321Z,100743.34
2023-05-07T13:50:45.834Z,100746.34
2023-05-07T13:53:24.281Z,100740.59
2023-05-07T13:55:54.295Z,100739.34
2023-05-07T13:58:24.570Z,100735.63
2023-05-07T14:00:56.329Z,100724.00
2023-05-07T14:03:29.364Z,100726.88
2023-05-07T14:06:05.297Z,100730.13
2023-05-07T14:08:38.049Z,100719.94
2023-05-07T14:11:07.553Z,100722.78
2023-05-07T14:13:46.753Z,100720.59
2023-05-07T14:16:28.402Z,100722.13
2023-05-07T14:19:02.100Z,100717.97
2023-05-07T14:21:38.220Z,100715.56
2023-05-07T14:24:13.480Z,100717.22
2023-05-07T14:26:58.156Z,100707.50
2023-05-07T14:29:31.360Z,100707.50
2023-05-07T14:32:13.550Z,100713.59
2023-05-07T14:34:45.746Z,100722.91
2023-05-07T14:37:21.129Z,100718.41
2023-05-07T14:39:51.306Z,100712.41
2023-05-07T14:42:21.862Z,100720.19
2023-05-07T14:44:58.221Z,100713.72
2023-05-07T14:47:28.622Z,100712.09
2023-05-07T14:50:03.597Z,100713.34
2023-05-07T14:52:37.244Z,100714.50
2023-05-07T14:55:11.017Z,100718.53
2023-05-07T14:57:45.937Z,100719.34
2023-05-07T15:00:19.155Z,100719.34
2023-05-07T15:03:04.797Z,100711.25
2023-05-07T15:05:42.761Z,100715.69
2023-05-07T15:08:21.140Z,100712.84
2023-05-07T15:10:56.276Z,100718.53
2023-05-07T15:13:26.589Z,100713.25
2023-05-07T15:16:02.796Z,100712.06
2023-05-07T15:18:41.960Z,100705.13
2023-05-07T15:21:17.840Z,100704.38
2023-05-07T15:23:51.923Z,100700.72
2023-05-07T15:26:28.819Z,100699.06
2023-05-07T15:29:04.079Z,100695.84
2023-05-07T15:31:38.067Z,100701.53
2023-05-07T15:34:28.162Z,100697.84
2023-05-07T15:36:59.440Z,100698.69
2023-05-07T15:39:29.966Z,100696.22
2023-05-07T15:42:03.817Z,100702.22
2023-05-07T15:44:36.041Z,100705.97
2023-05-07T15:47:08.814Z,100702.66
2023-05-07T15:49:41.861Z,100694.94
2023-05-07T15:52:22.683Z,100704.31
2023-05-07T15:54:50.875Z,100703.84
2023-05-07T15:57:23.883Z,100705.50
2023-05-07T16:00:03.030Z,100695.78
2023-05-07T16:02:40.452Z,100696.97
2023-05-07T16:05:11.036Z,100697.84
2023-05-07T16:07:39.455Z,100696.63
2023-05-07T16:10:28.367Z,100688.09
2023-05-07T16:13:03.051Z,100693.38
2023-05-07T16:15:36.298Z,100685.59
2023-05-07T16:18:10.766Z,100685.22
2023-05-07T16:20:46.437Z,100691.34
2023-05-07T16:23:22.673Z,100690.09
2023-05-07T16:25:55.442Z,100689.31
2023-05-07T16:28:28.937Z,100689.31
2023-05-07T16:31:01.914Z,100694.25
2023-05-07T16:33:36.072Z,100685.25
2023-05-07T16:36:12.947Z,100683.66
2023-05-07T16:38:45.960Z,100690.53
2023-05-07T16:41:30.765Z,100682.81
2023-05-07T16:44:06.202Z,100690.16
2023-05-07T16:46:41.535Z,100693.38
2023-05-07T16:49:16.863Z,100690.53
2023-05-07T16:51:53.867Z,100692.59
2023-05-07T16:54:29.211Z,100696.69
2023-05-07T16:57:05.029Z,100699.50
2023-05-07T16:59:35.644Z,100700.72
2023-05-07T17:02:12.168Z,100706.47
2023-05-07T17:04:42.984Z,100700.03
2023-05-07T17:07:16.428Z,100708.91
2023-05-07T17:09:47.328Z,100706.94
2023-05-07T17:12:21.341Z,100705.72
2023-05-07T17:14:59.874Z,100709.38
2023-05-07T17:17:35.149Z,100717.03
2023-05-07T17:20:09.227Z,100714.25
2023-05-07T17:22:45.847Z,100717.94
2023-05-07T17:25:23.557Z,100710.22
2023-05-07T17:28:02.065Z,100714.28
2023-05-07T17:30:42.678Z,100715.47
2023-05-07T17:33:22.495Z,100716.75
2023-05-07T17:35:55.859Z,100711.47
2023-05-07T17:38:26.029Z,100725.69
2023-05-07T17:40:59.140Z,100721.25
2023-05-07T17:43:28.951Z,100730.22
2023-05-07T17:46:06.252Z,100722.09
2023-05-07T17:48:38.914Z,100729.44
2023-05-07T17:51:11.690Z,100724.56
2023-05-07T17:53:47.957Z,100724.19
2023-05-07T17:56:17.807Z,100712.81
2023-05-07T17:58:59.185Z,100722.59
2023-05-07T18:01:34.206Z,100724.66
2023-05-07T18:04:09.088Z,100729.13
2023-05-07T18:06:42.965Z,100732.81
2023-05-07T18:09:13.795Z,100734.47
2023-05-07T18:11:44.200Z,100738.09
2023-05-07T18:14:16.472Z,100728.78
2023-05-07T18:16:50.182Z,100728.81
2023-05-07T18:19:23.148Z,100723.88
2023-05-07T18:21:55.403Z,100729.63
2023-05-07T18:24:27.737Z,100730.41
2023-05-07T18:27:02.434Z,100733.25
2023-05-07T18:29:36.946Z,100729.63
2023-05-07T18:32:14.770Z,100732.81
2023-05-07T18:34:47.939Z,100734.09
2023-05-07T18:37:19.220Z,100735.34
2023-05-07T18:39:56.681Z,100740.22
2023-05-07T18:42:36.979Z,100754.44
2023-05-07T18:45:10.581Z,100758.09
2023-05-07T18:47:43.590Z,100757.69
2023-05-07T18:50:20.173Z,100760.94
2023-05-07T18:52:53.066Z,100767.81
2023-05-07T18:55:23.694Z,100763.78
2023-05-07T18:58:02.023Z,100760.97
2023-05-07T19:00:33.129Z,100763.81
2023-05-07T19:03:15.065Z,100774.75
2023-05-07T19:05:45.992Z,100776.00
2023-05-07T19:08:14.752Z,100767.06
2023-05-07T19:10:49.811Z,100771.53
2023-05-07T19:13:27.527Z,100768.69
2023-05-07T19:16:11.143Z,100767.91
2023-05-07T19:18:46.223Z,100767.91
2023-05-07T19:21:22.236Z,100767.56
2023-05-07T19:23:53.964Z,100772.88
2023-05-07T19:26:24.680Z,100767.97
2023-05-07T19:29:11.770Z,100773.25
2023-05-07T19:31:54.566Z,100771.66
2023-05-07T19:34:27.626Z,100779.78
2023-05-07T19:37:00.354Z,100790.38
2023-05-07T19:39:33.089Z,100786.72
2023-05-07T19:42:13.326Z,100793.22
2023-05-07T19:44:46.480Z,100804.97
2023-05-07T19:47:25.714Z,100808.66
2023-05-07T19:49:58.175Z,100814.72
2023-05-07T19:52:31.838Z,100825.25
2023-05-07T19:55:04.364Z,100832.56
2023-05-07T19:57:35.055Z,100830.97
2023-05-07T20:00:09.984Z,100834.22
2023-05-07T20:02:48.938Z,100828.13
2023-05-07T20:05:19.389Z,100831.75
2023-05-07T20:07:52.823Z,100832.19
2023-05-07T20:10:28.210Z,100826.50
2023-05-07T20:13:01.099Z,100836.28
2023-05-07T20:15:34.800Z,100836.28
2023-05-07T20:18:04.992Z,100844.41
2023-05-07T20:20:36.848Z,100859.00
2023-05-07T20:23:09.793Z,100844.41
2023-05-07T20:25:50.312Z,100839.97
2023-05-07T20:28:23.441Z,100837.88
2023-05-07T20:30:54.885Z,100828.56
2023-05-07T20:33:27.790Z,100820.94
2023-05-07T20:36:04.678Z,100817.28
2023-05-07T20:38:42.649Z,100813.19
2023-05-07T20:41:14.394Z,100815.28
2023-05-07T20:43:48.676Z,100817.72
2023-05-07T20:46:23.031Z,100824.22
2023-05-07T20:48:57.269Z,100840.06
2023-05-07T20:51:30.358Z,100842.94
2023-05-07T20:54:00.720Z,100836.84
2023-05-07T20:56:36.180Z,100842.13
2023-05-07T20:59:07.224Z,100836.84
2023-05-07T21:01:40.674Z,100845.72
2023-05-07T21:04:15.293Z,100853.06
2023-05-07T21:06:54.696Z,100859.91
2023-05-07T21:09:24.508Z,100870.09
2023-05-07T21:11:58.129Z,100885.47
2023-05-07T21:14:30.111Z,100883.03
2023-05-07T21:17:05.269Z,100876.56
2023-05-07T21:19:43.154Z,100885.13
2023-05-07T21:22:16.561Z,100883.09
2023-05-07T21:24:51.312Z,100895.28
2023-05-07T21:27:26.228Z,100895.69
2023-05-07T21:30:06.152Z,100899.31
2023-05-07T21:32:39.509Z,100904.97
2023-05-07T21:35:10.302Z,100920.00
2023-05-07T21:37:50.538Z,100958.53
2023-05-07T21:40:23.399Z,100981.22
2023-05-07T21:42:58.596Z,100994.25
2023-05-07T21:45:31.106Z,101006.38
2023-05-07T21:48:09.814Z,100981.22
2023-05-07T21:50:43.065Z,100959.31
2023-05-07T21:53:15.112Z,100945.50
2023-05-07T21:55:49.908Z,100945.06
2023-05-07T21:58:25.265Z,100959.31
2023-05-07T22:01:05.393Z,100969.88
2023-05-07T22:03:42.204Z,100969.03
2023-05-07T22:06:21.538Z,100987.75
2023-05-07T22:08:55.469Z,101003.97
2023-05-07T22:11:28.684Z,101003.97
2023-05-07T22:14:01.246Z,101012.50
2023-05-07T22:16:31.510Z,101007.63
2023-05-07T22:19:05.422Z,101022.25
2023-05-07T22:21:44.857Z,101028.34
2023-05-07T22:24:18.346Z,101039.72
2023-05-07T22:26:53.678Z,101040.09
2023-05-07T22:29:32.801Z,101040.50
2023-05-07T22:32:11.877Z,101032.00
2023-05-07T22:34:51.612Z,101024.31
2023-05-07T22:37:19.255Z,101015.00
2023-05-07T22:39:53.345Z,101012.16
2023-05-07T22:42:26.122Z,101010.50
2023-05-07T22:45:02.754Z,101018.22
2023-05-07T22:47:38.575Z,101022.28
2023-05-07T22:50:18.721Z,101014.59
2023-05-07T22:52:54.723Z,101008.94
2023-05-07T22:55:29.591Z,101013.38
2023-05-07T22:58:02.596Z,101006.91
2023-05-07T23:00:38.648Z,100992.69
2023-05-07T23:03:11.699Z,101005.69
2023-05-07T23:05:41.755Z,101011.34
2023-05-07T23:08:14.095Z,101013.00
2023-05-07T23:10:49.809Z,101019.09
2023-05-07T23:13:26.178Z,101011.81
2023-05-07T23:15:58.905Z,101016.69
2023-05-07T23:18:34.190Z,101019.53
2023-05-07T23:21:07.312Z,101027.63
2023-05-07T23:23:43.452Z,101026.81
2023-05-07T23:26:21.517Z,101015.44
2023-05-07T23:28:51.532Z,101011.38
2023-05-07T23:31:22.728Z,101002.09
2023-05-07T23:33:58.589Z,100994.41
2023-05-07T23:36:35.222Z,100983.03
2023-05-07T23:39:08.150Z,100976.16
2023-05-07T23:41:35.882Z,100964.78
2023-05-07T23:44:12.405Z,100961.13
2023-05-07T23:46:46.164Z,100946.13
2023-05-07T23:49:20.094Z,100948.19
2023-05-07T23:51:52.937Z,100948.56
2023-05-07T23:54:28.757Z,100949.75
2023-05-07T23:57:04.601Z,100940.41
2023-05-07T23:59:36.596Z,100945.69
